Time;durP1;ratioP1;P1;durP2;ratioP2;P2;SDS_P1;SDS_P2;PMS_P1;PMS_P2;Temp;Humidity;BMP_temperature;BMP_pressure;BME280_temperature;BME280_humidity;BME280_pressure;Samples;Min_cycle;Max_cycle;Signal;HPM_P1;HPM_P2
2022/09/19 00:01:39;;;;;;;11.82;2.05;;;;;;;14.01;61.88;101571.13;4924944;29;20059;-65
2022/09/19 00:04:13;;;;;;;5.13;2.15;;;;;;;13.87;62.59;101577.84;4925265;29;20051;-65
2022/09/19 00:06:41;;;;;;;7.35;2.15;;;;;;;13.94;62.92;101570.75;4924834;29;20056;-65
2022/09/19 00:09:11;;;;;;;5.10;1.80;;;;;;;14.27;61.63;101574.91;4942410;29;20691;-65
2022/09/19 00:11:41;;;;;;;7.80;1.88;;;;;;;13.95;61.74;101574.31;4941885;29;20054;-66
2022/09/19 00:14:10;;;;;;;6.10;1.83;;;;;;;13.54;63.67;101561.47;4942526;29;20056;-67
2022/09/19 00:16:38;;;;;;;8.55;2.22;;;;;;;14.02;62.61;101577.47;4941802;29;20062;-65
2022/09/19 00:19:09;;;;;;;5.95;2.40;;;;;;;13.80;62.56;101577.47;4925242;29;20051;-66
2022/09/19 00:21:39;;;;;;;5.68;2.30;;;;;;;13.88;62.94;101576.72;4941561;29;20047;-65
2022/09/19 00:26:57;;;;;;;6.50;2.00;;;;;;;13.71;63.82;101576.56;4941576;29;20056;-65
2022/09/19 00:29:25;;;;;;;7.72;2.30;;;;;;;13.46;64.32;101575.22;4941772;29;20495;-65
2022/09/19 00:31:52;;;;;;;4.97;2.05;;;;;;;13.74;64.71;101573.19;4941346;29;20044;-65
2022/09/19 00:34:20;;;;;;;5.53;1.95;;;;;;;13.88;63.80;101576.72;4941835;29;20062;-65
2022/09/19 00:36:48;;;;;;;5.00;1.95;;;;;;;13.93;63.41;101580.16;4941458;29;20055;-66
2022/09/19 00:39:17;;;;;;;5.22;2.10;;;;;;;13.62;64.07;101579.28;4941673;29;20059;-65
2022/09/19 00:41:46;;;;;;;4.72;1.90;;;;;;;13.69;64.98;101587.13;4924218;29;20048;-65
2022/09/19 00:44:22;;;;;;;4.03;1.80;;;;;;;13.96;63.93;101585.09;4909122;29;20071;-66
2022/09/19 00:47:07;;;;;;;3.65;1.98;;;;;;;13.76;63.59;101584.75;4923735;29;20052;-65
2022/09/19 00:49:38;;;;;;;3.90;1.80;;;;;;;14.03;63.54;101576.34;4923405;29;20444;-64
2022/09/19 00:52:10;;;;;;;;;;;;;;;14.21;63.28;101586.41;4924389;29;20052;-64
2022/09/19 00:54:40;;;;;;;5.20;1.95;;;;;;;14.08;62.95;101578.97;4908940;29;19927;-66
2022/09/19 00:57:11;;;;;;;5.93;2.55;;;;;;;13.90;63.76;101579.97;4904942;29;20063;-65
2022/09/19 00:59:40;;;;;;;5.95;1.90;;;;;;;14.34;62.18;101591.06;4889566;29;20074;-66
2022/09/19 01:02:08;;;;;;;6.47;1.93;;;;;;;13.51;64.88;101587.00;4920129;29;20039;-64
2022/09/19 01:04:36;;;;;;;4.25;1.90;;;;;;;13.38;65.86;101584.28;4924041;29;20651;-65
2022/09/19 01:07:28;;;;;;;5.88;2.30;;;;;;;13.33;65.56;101587.16;4940637;29;20052;-65
2022/09/19 01:10:08;;;;;;;5.32;2.00;;;;;;;13.35;65.79;101587.66;4939953;29;20047;-65
2022/09/19 01:12:47;;;;;;;4.57;1.83;;;;;;;13.81;65.29;101587.44;4908123;29;20062;-65
2022/09/19 01:15:23;;;;;;;4.15;2.20;;;;;;;14.38;64.00;101581.78;4941126;29;20067;-65
2022/09/19 01:17:52;;;;;;;8.73;2.25;;;;;;;14.01;63.69;101584.16;4923599;29;20078;-64
2022/09/19 01:20:41;;;;;;;7.97;2.27;;;;;;;14.33;63.66;101589.44;4923813;29;20400;-65
2022/09/19 01:23:32;;;;;;;3.78;1.58;;;;;;;14.49;62.83;101582.34;4923500;29;20503;-65
2022/09/19 01:26:03;;;;;;;5.05;2.00;;;;;;;14.52;62.38;101590.03;4908116;29;20051;-65
2022/09/19 01:28:43;;;;;;;8.25;2.35;;;;;;;14.62;62.63;101582.28;4923551;29;20051;-65
2022/09/19 01:31:18;;;;;;;;;;;;;;;14.25;62.68;101587.41;4891506;29;20066;-65
2022/09/19 01:34:09;;;;;;;4.25;1.90;;;;;;;14.43;63.86;101578.91;4908466;29;20406;-65
2022/09/19 01:36:46;;;;;;;6.15;2.28;;;;;;;14.94;61.60;101589.38;4908025;29;20052;-65
2022/09/19 01:39:17;;;;;;;4.82;1.80;;;;;;;15.02;61.39;101590.56;4908337;29;20059;-65
2022/09/19 01:41:50;;;;;;;7.28;1.70;;;;;;;14.83;61.07;101592.78;4908224;29;20400;-66
2022/09/19 01:44:21;;;;;;;3.75;1.63;;;;;;;14.70;61.12;101588.97;4923694;29;20058;-65
2022/09/19 01:47:13;;;;;;;3.47;1.50;;;;;;;14.70;63.34;101599.25;4923086;29;20055;-66
2022/09/19 01:49:43;;;;;;;5.90;1.85;;;;;;;15.54;60.50;101589.56;4920152;29;20063;-65
2022/09/19 01:52:30;;;;;;;6.65;2.10;;;;;;;15.54;59.08;101593.16;4919911;29;20052;-65
2022/09/19 01:55:20;;;;;;;6.07;1.80;;;;;;;14.88;60.07;101592.63;4923319;29;20055;-64
2022/09/19 01:57:57;;;;;;;7.30;2.10;;;;;;;14.53;62.84;101599.97;4919034;29;20056;-66
2022/09/19 02:00:26;;;;;;;5.60;1.70;;;;;;;14.89;61.49;101591.50;4905536;29;20067;-66
2022/09/19 02:03:11;;;;;;;6.28;2.00;;;;;;;15.02;61.31;101596.09;4907513;29;20054;-65
2022/09/19 02:06:00;;;;;;;3.45;1.90;;;;;;;14.73;61.00;101599.44;4908491;29;20051;-65
2022/09/19 02:08:47;;;;;;;5.03;2.05;;;;;;;14.68;62.83;101594.84;4907665;29;20058;-66
2022/09/19 02:11:24;;;;;;;5.07;1.88;;;;;;;14.89;62.05;101600.63;4922486;29;20044;-65
2022/09/19 02:13:56;;;;;;;8.73;1.80;;;;;;;14.86;62.27;101604.06;4907626;29;20059;-65
2022/09/19 02:16:47;;;;;;;6.93;2.08;;;;;;;15.31;60.75;101599.94;4922463;29;20047;-65
2022/09/19 02:19:25;;;;;;;6.55;1.92;;;;;;;15.25;60.78;101604.03;4892065;29;20063;-65
2022/09/19 02:21:56;;;;;;;4.65;1.80;;;;;;;15.19;60.54;101613.63;4906999;29;20051;-66
2022/09/19 02:24:30;;;;;;;6.72;1.77;;;;;;;14.51;61.88;101608.63;4923020;29;20415;-65
2022/09/19 02:27:07;;;;;;;4.50;1.95;;;;;;;14.39;63.74;101610.34;4906684;29;20056;-65
2022/09/19 02:29:40;;;;;;;5.63;1.98;;;;;;;14.75;63.05;101610.22;4891936;29;20052;-65
2022/09/19 02:32:09;;;;;;;7.13;2.30;;;;;;;14.50;62.48;101604.22;4906296;29;20052;-65
2022/09/19 02:34:37;;;;;;;3.58;1.55;;;;;;;14.77;62.31;101613.50;4922564;29;20583;-63
2022/09/19 02:37:12;;;;;;;7.78;2.15;;;;;;;14.72;62.66;101603.34;4906520;29;20055;-62
2022/09/19 02:39:56;;;;;;;3.70;1.75;;;;;;;14.96;62.47;101602.97;4906494;29;20051;-62
2022/09/19 02:42:47;;;;;;;7.13;2.08;;;;;;;14.48;62.81;101609.28;4907900;29;20047;-62
2022/09/19 02:45:20;;;;;;;10.35;2.33;;;;;;;15.12;62.09;101598.56;4921485;29;20048;-62
2022/09/19 02:48:03;;;;;;;4.18;1.40;;;;;;;14.93;61.36;101604.41;4921904;29;20054;-63
2022/09/19 02:50:39;;;;;;;5.35;1.70;;;;;;;14.63;62.01;101605.25;4905969;29;20388;-61
2022/09/19 02:53:12;;;;;;;6.88;1.85;;;;;;;14.64;62.97;101609.69;4906302;29;20051;-62
2022/09/19 02:55:46;;;;;;;4.28;1.80;;;;;;;14.24;63.47;101608.75;4921840;29;20055;-62
2022/09/19 02:58:15;;;;;;;7.88;2.10;;;;;;;14.35;64.32;101606.56;4939176;29;20051;-62
2022/09/19 03:00:52;;;;;;;5.43;1.60;;;;;;;14.79;62.49;101612.00;4905706;29;20060;-62
2022/09/19 03:06:37;;;;;;;6.38;1.83;;;;;;;15.04;61.65;101602.97;4908437;29;20062;-61
2022/09/19 03:09:07;;;;;;;4.63;1.73;;;;;;;15.07;61.66;101607.88;4922151;29;20048;-61
2022/09/19 03:11:37;;;;;;;5.20;2.00;;;;;;;15.16;61.53;101608.72;4905965;29;20066;-61
2022/09/19 03:14:05;;;;;;;8.80;2.22;;;;;;;15.04;61.94;101610.47;4922123;29;20168;-61
2022/09/19 03:16:40;;;;;;;8.77;2.30;;;;;;;15.12;61.91;101610.50;4921097;29;20503;-64
2022/09/19 03:19:09;;;;;;;4.97;1.75;;;;;;;15.25;61.79;101609.56;4906171;29;20056;-62
2022/09/19 03:21:38;;;;;;;5.68;1.85;;;;;;;15.32;61.38;101609.09;4921394;29;20577;-62
2022/09/19 03:24:06;;;;;;;3.70;1.90;;;;;;;15.48;60.60;101616.66;4921886;29;20040;-61
2022/09/19 03:26:36;;;;;;;4.57;1.80;;;;;;;14.97;60.39;101616.50;4906094;29;20067;-61
2022/09/19 03:29:08;;;;;;;5.35;1.90;;;;;;;14.83;63.16;101607.47;4921613;29;20067;-62
2022/09/19 03:31:45;;;;;;;4.97;1.90;;;;;;;15.39;61.21;101603.88;4919783;29;20507;-62
2022/09/19 03:34:14;;;;;;;6.82;2.33;;;;;;;14.93;62.17;101609.94;4906282;29;20039;-63
2022/09/19 03:36:42;;;;;;;6.70;2.40;;;;;;;14.95;62.44;101618.78;4921139;29;20059;-63
2022/09/19 03:39:13;;;;;;;4.40;1.75;;;;;;;14.84;62.09;101617.41;4906005;29;20058;-61
2022/09/19 03:41:42;;;;;;;4.43;1.90;;;;;;;14.94;62.62;101617.13;4921183;29;20063;-61
2022/09/19 03:44:11;;;;;;;4.15;1.75;;;;;;;14.73;63.08;101606.94;4921642;29;20306;-62
2022/09/19 03:46:38;;;;;;;5.80;1.80;;;;;;;13.87;64.97;101619.38;4906203;29;20051;-61
2022/09/19 03:49:07;;;;;;;7.72;1.77;;;;;;;13.84;65.90;101620.84;4921517;29;20063;-61
2022/09/19 03:51:34;;;;;;;6.10;1.95;;;;;;;14.17;66.30;101621.41;4921790;29;20056;-62
2022/09/19 03:54:04;;;;;;;6.23;2.10;;;;;;;14.36;64.50;101619.28;4921937;29;20047;-63
2022/09/19 03:56:37;;;;;;;4.47;1.90;;;;;;;14.74;63.78;101620.47;4905259;29;20051;-62
2022/09/19 03:59:07;;;;;;;6.87;2.20;;;;;;;14.95;63.25;101627.09;4921465;29;20056;-62
2022/09/19 04:01:37;;;;;;;4.93;2.10;;;;;;;15.00;63.14;101626.94;4920786;29;20615;-63
2022/09/19 04:04:05;;;;;;;6.00;1.95;;;;;;;14.53;63.29;101634.09;4921289;29;20059;-61
2022/09/19 04:06:36;;;;;;;7.78;2.22;;;;;;;14.79;63.61;101630.59;4920661;29;20048;-63
2022/09/19 04:09:04;;;;;;;6.68;2.17;;;;;;;15.04;63.19;101633.50;4921294;29;20078;-62
2022/09/19 04:11:31;;;;;;;6.78;2.53;;;;;;;14.60;62.99;101628.06;4905237;29;20517;-62
2022/09/19 04:13:59;;;;;;;4.50;1.90;;;;;;;13.82;65.59;101642.50;4920961;29;20052;-62
2022/09/19 04:16:26;;;;;;;6.13;1.95;;;;;;;13.69;67.24;101645.28;4919577;29;20051;-62
2022/09/19 04:18:56;;;;;;;8.05;2.17;;;;;;;13.60;67.69;101644.41;4921183;29;20059;-62
2022/09/19 04:21:46;;;;;;;4.78;1.83;;;;;;;13.82;68.18;101636.13;4920380;29;20709;-63
2022/09/19 04:24:46;;;;;;;5.15;2.03;;;;;;;14.05;66.19;101638.59;4925274;29;20086;-61
2022/09/19 04:27:33;;;;;;;9.00;2.40;;;;;;;13.81;65.60;101637.28;4937114;29;20064;-60
2022/09/19 04:30:01;;;;;;;7.70;2.30;;;;;;;13.37;68.00;101647.09;4921265;29;20051;-61
2022/09/19 04:32:30;;;;;;;5.72;2.10;;;;;;;14.08;67.09;101645.47;4905154;29;20061;-61
2022/09/19 04:34:59;;;;;;;4.90;2.30;;;;;;;14.15;65.52;101643.91;4921067;29;20062;-61
2022/09/19 04:37:26;;;;;;;7.70;2.45;;;;;;;13.94;66.20;101644.69;4920725;29;20043;-62
2022/09/19 04:40:04;;;;;;;9.88;2.70;;;;;;;13.83;66.76;101648.84;4921020;29;20051;-62
2022/09/19 04:42:34;;;;;;;9.80;3.45;;;;;;;14.05;67.34;101649.66;4938075;29;20047;-59
2022/09/19 04:45:02;;;;;;;8.55;3.40;;;;;;;13.65;68.19;101647.84;4924606;29;20062;-61
2022/09/19 04:47:38;;;;;;;7.65;3.22;;;;;;;14.27;66.92;101644.19;4909110;29;20066;-65
2022/09/19 04:50:08;;;;;;;7.32;2.75;;;;;;;13.90;65.97;101652.00;4924373;29;20504;-61
2022/09/19 04:52:38;;;;;;;9.13;3.03;;;;;;;13.64;67.06;101650.94;4941118;29;20062;-62
2022/09/19 04:55:06;;;;;;;;;;;;;;;13.29;68.83;101656.13;4941872;29;20392;-62
2022/09/19 04:57:34;;;;;;;8.50;2.65;;;;;;;13.34;68.55;101660.72;4923706;29;19926;-62
2022/09/19 05:00:09;;;;;;;8.13;2.53;;;;;;;13.04;69.77;101659.41;4909744;29;20062;-62
2022/09/19 05:02:38;;;;;;;6.30;2.30;;;;;;;13.09;70.46;101652.97;4909009;29;20063;-61
2022/09/19 05:05:06;;;;;;;5.82;2.55;;;;;;;13.57;70.61;101654.97;4925417;29;20530;-62
2022/09/19 05:07:34;;;;;;;6.25;2.40;;;;;;;13.96;67.09;101647.97;4924497;29;20066;-62
2022/09/19 05:10:04;;;;;;;5.68;2.58;;;;;;;13.70;67.25;101658.00;4924549;29;20051;-62
2022/09/19 05:12:35;;;;;;;10.93;2.50;;;;;;;12.88;70.23;101658.06;4923889;29;20047;-60
2022/09/19 05:15:03;;;;;;;7.70;2.28;;;;;;;13.29;71.07;101658.91;4924308;29;20063;-60
2022/09/19 05:17:32;;;;;;;6.97;2.20;;;;;;;14.23;67.34;101656.16;4907808;29;20055;-62
2022/09/19 05:19:59;;;;;;;6.57;2.28;;;;;;;14.28;65.39;101656.91;4923773;29;20059;-61
2022/09/19 05:22:29;;;;;;;10.45;2.50;;;;;;;14.45;65.62;101664.53;4923239;29;20062;-60
2022/09/19 05:25:00;;;;;;;9.40;2.13;;;;;;;14.39;65.72;101663.84;4923869;29;20464;-60
2022/09/19 05:27:31;;;;;;;6.63;2.55;;;;;;;14.50;65.51;101668.00;4908042;29;20411;-60
2022/09/19 05:29:59;;;;;;;6.65;2.50;;;;;;;14.35;65.15;101662.81;4924155;29;20059;-61
2022/09/19 05:32:33;;;;;;;7.15;2.80;;;;;;;14.48;65.12;101672.19;4923014;29;20058;-61
2022/09/19 05:35:16;;;;;;;4.95;2.42;;;;;;;14.75;64.86;101672.03;4909882;29;20063;-62
2022/09/19 05:37:57;;;;;;;8.52;2.33;;;;;;;14.52;64.88;101676.78;4906250;29;20400;-63
2022/09/19 05:40:39;;;;;;;7.00;2.42;;;;;;;13.95;67.27;101674.03;4909846;29;20073;-64
2022/09/19 05:43:20;;;;;;;9.40;2.30;;;;;;;14.24;66.00;101669.69;4940781;29;20675;-60
2022/09/19 05:45:52;;;;;;;9.35;2.58;;;;;;;14.12;66.44;101680.53;4923164;29;20067;-61
2022/09/19 05:48:19;;;;;;;5.78;2.63;;;;;;;13.60;67.37;101675.66;4904471;29;20060;-62
2022/09/19 05:50:48;;;;;;;9.20;2.70;;;;;;;13.86;68.24;101673.16;4904203;29;20059;-61
2022/09/19 05:56:16;;;;;;;9.85;2.42;;;;;;;12.74;70.20;101698.69;4919487;29;20419;-61
2022/09/19 05:58:46;;;;;;;5.95;2.60;;;;;;;12.71;72.75;101690.97;4920110;29;20055;-61
2022/09/19 06:01:14;;;;;;;9.77;2.55;;;;;;;13.64;69.42;101681.38;4920864;29;20052;-61
2022/09/19 06:03:42;;;;;;;5.55;2.55;;;;;;;13.38;69.32;101690.25;4903900;29;20488;-61
2022/09/19 06:06:14;;;;;;;11.15;3.10;;;;;;;12.97;70.00;101683.03;4903665;29;20060;-62
2022/09/19 06:08:42;;;;;;;7.53;2.63;;;;;;;13.64;70.29;101682.22;4919877;29;20051;-62
2022/09/19 06:11:13;;;;;;;7.50;2.83;;;;;;;14.20;67.78;101690.06;4919646;29;20055;-59
2022/09/19 06:16:27;;;;;;;5.50;2.85;;;;;;;14.04;67.83;101694.31;4919268;29;20527;-61
2022/09/19 06:19:18;;;;;;;7.97;2.50;;;;;;;13.76;68.35;101701.06;4915143;29;20071;-62
2022/09/19 06:21:51;;;;;;;8.05;2.47;;;;;;;14.00;67.51;101707.97;4919315;29;20067;-60
2022/09/19 06:24:20;;;;;;;9.80;2.72;;;;;;;14.15;67.34;101709.56;4904107;29;20411;-59
2022/09/19 06:26:49;;;;;;;8.20;2.67;;;;;;;14.02;67.19;101716.78;4903040;29;20083;-60
2022/09/19 06:29:16;;;;;;;9.65;2.80;;;;;;;13.78;67.69;101715.41;4912768;29;20539;-62
2022/09/19 06:31:57;;;;;;;10.30;2.72;;;;;;;14.28;67.74;101722.59;4910834;29;20058;-62
2022/09/19 06:34:28;;;;;;;9.75;3.47;;;;;;;14.17;65.39;101724.78;4908278;29;20439;-62
2022/09/19 06:37:16;;;;;;;7.03;3.05;;;;;;;13.02;69.79;101733.56;4914125;29;20056;-61
2022/09/19 06:39:44;;;;;;;9.73;3.08;;;;;;;12.93;71.26;101740.06;4918233;29;20059;-67
2022/09/19 06:42:56;;;;;;;9.13;3.15;;;;;;;13.09;70.73;101742.28;4905755;29;20059;-66
2022/09/19 06:45:37;;;;;;;10.10;2.90;;;;;;;12.94;71.94;101745.31;4916663;29;20443;-70
2022/09/19 06:48:16;;;;;;;8.70;3.00;;;;;;;13.10;72.25;101745.88;4905384;29;20048;-71
2022/09/19 06:50:53;;;;;;;10.52;3.28;;;;;;;13.40;70.26;101740.59;4913985;29;20056;-72
2022/09/19 06:53:22;;;;;;;15.65;3.65;;;;;;;12.77;72.45;101742.28;4918301;29;20048;-70
2022/09/19 06:55:56;;;;;;;8.27;3.20;;;;;;;12.85;73.09;101749.09;4913654;29;20057;-66
2022/09/19 06:58:25;;;;;;;8.68;2.90;;;;;;;12.97;72.19;101752.19;4901113;29;20448;-71
2022/09/19 07:00:54;;;;;;;10.20;3.15;;;;;;;13.18;73.42;101750.72;4900626;29;20059;-68
2022/09/19 07:03:23;;;;;;;6.40;3.00;;;;;;;13.04;71.90;101755.41;4916421;29;20123;-64
2022/09/19 07:05:59;;;;;;;15.10;3.22;;;;;;;13.37;72.39;101755.00;4916266;29;20048;-66
2022/09/19 07:08:37;;;;;;;8.95;3.40;;;;;;;13.47;71.54;101749.28;4916293;29;20064;-66
2022/09/19 07:11:07;;;;;;;7.38;3.00;;;;;;;13.40;70.31;101764.66;4913868;29;20040;-65
2022/09/19 07:13:38;;;;;;;11.18;3.05;;;;;;;13.18;71.21;101770.88;4916369;29;20055;-66
2022/09/19 07:16:09;;;;;;;15.20;3.53;;;;;;;13.54;70.59;101768.25;4900723;29;20056;-65
2022/09/19 07:18:37;;;;;;;9.98;2.88;;;;;;;13.77;70.36;101770.00;4918706;29;20056;-66
2022/09/19 07:21:31;;;;;;;10.32;2.90;;;;;;;14.29;68.27;101758.31;4915465;29;20067;-65
2022/09/19 07:24:01;;;;;;;12.57;3.25;;;;;;;14.44;66.99;101768.22;4917337;29;20055;-67
2022/09/19 07:27:04;;;;;;;14.20;3.35;;;;;;;14.86;66.06;101769.66;4876908;29;20131;-65
2022/09/19 07:29:32;;;;;;;18.50;4.28;;;;;;;14.85;65.32;101771.63;4899258;29;20059;-66
2022/09/19 07:32:01;;;;;;;11.60;3.92;;;;;;;14.59;65.27;101765.88;4912829;29;20045;-67
2022/09/19 07:34:32;;;;;;;14.73;3.65;;;;;;;14.58;65.82;101772.56;4916318;29;20059;-67
2022/09/19 07:37:02;;;;;;;12.48;4.20;;;;;;;14.66;65.55;101774.59;4916235;29;20060;-66
2022/09/19 07:39:32;;;;;;;10.40;3.40;;;;;;;14.87;65.42;101774.09;4917853;29;20051;-66
2022/09/19 07:42:46;;;;;;;8.02;2.70;;;;;;;14.74;64.80;101777.75;4896925;29;20051;-66
2022/09/19 07:45:50;;;;;;;13.05;3.42;;;;;;;14.06;67.53;101787.06;4881906;29;20068;-65
2022/09/19 07:48:47;;;;;;;12.65;3.33;;;;;;;13.46;69.33;101791.94;4914317;29;20056;-66
2022/09/19 07:51:28;;;;;;;11.45;3.60;;;;;;;13.49;69.84;101794.06;4898738;29;20055;-61
2022/09/19 07:53:57;;;;;;;11.75;3.30;;;;;;;13.22;70.92;101802.34;4917106;29;20052;-62
2022/09/19 07:56:25;;;;;;;14.07;3.60;;;;;;;13.75;70.01;101799.13;4916939;29;20059;-63
2022/09/19 07:58:53;;;;;;;11.45;3.20;;;;;;;13.99;68.61;101797.75;4896344;29;20060;-61
2022/09/19 08:01:22;;;;;;;14.45;3.40;;;;;;;14.05;68.90;101798.47;4916458;29;20056;-64
2022/09/19 08:04:06;;;;;;;10.57;3.35;;;;;;;13.70;69.13;101802.00;4916539;29;20520;-63
2022/09/19 08:07:00;;;;;;;11.93;3.25;;;;;;;13.46;70.69;101811.28;4915630;29;20063;-62
2022/09/19 08:09:28;;;;;;;11.68;3.05;;;;;;;13.68;70.79;101795.94;4916661;29;20051;-62
2022/09/19 08:12:12;;;;;;;15.25;2.83;;;;;;;13.66;69.94;101809.25;4916602;29;20044;-62
2022/09/19 08:15:06;;;;;;;18.95;3.50;;;;;;;14.24;68.38;101810.25;4912200;29;20071;-62
2022/09/19 08:17:36;;;;;;;13.73;3.50;;;;;;;13.90;68.55;101807.09;4916597;29;20044;-62
2022/09/19 08:20:04;;;;;;;12.00;3.38;;;;;;;13.54;70.36;101816.16;4903471;29;20543;-62
2022/09/19 08:22:34;;;;;;;14.85;3.00;;;;;;;13.67;70.20;101814.47;4918502;29;20051;-63
2022/09/19 08:25:07;;;;;;;18.98;3.63;;;;;;;14.29;68.87;101808.22;4909354;29;20519;-63
2022/09/19 08:27:37;;;;;;;19.48;3.22;;;;;;;14.51;66.67;101805.47;4916345;29;20056;-67
2022/09/19 08:30:06;;;;;;;9.60;2.58;;;;;;;14.48;64.80;101808.03;4919156;29;20052;-67
2022/09/19 08:32:34;;;;;;;10.30;2.13;;;;;;;14.36;64.16;101814.16;4919812;29;20067;-67
2022/09/19 08:35:04;;;;;;;14.07;2.00;;;;;;;14.50;63.17;101811.31;4918537;29;20056;-67
2022/09/19 08:37:35;;;;;;;12.40;2.00;;;;;;;14.26;62.83;101822.66;4918919;29;20055;-67
2022/09/19 08:40:18;;;;;;;11.05;2.13;;;;;;;14.25;62.92;101817.41;4903169;29;20060;-68
2022/09/19 08:42:47;;;;;;;12.50;2.03;;;;;;;14.70;62.52;101821.91;4917145;29;20059;-65
2022/09/19 08:45:26;;;;;;;15.43;2.08;;;;;;;14.85;60.65;101818.78;4917311;29;20048;-66
2022/09/19 08:47:53;;;;;;;13.82;2.08;;;;;;;14.53;60.44;101810.69;4913593;29;20060;-66
2022/09/19 08:50:26;;;;;;;13.27;1.95;;;;;;;14.51;59.77;101816.56;4905336;29;20063;-68
2022/09/19 08:52:58;;;;;;;10.20;1.77;;;;;;;14.62;59.12;101811.59;4922539;29;20067;-66
2022/09/19 08:55:31;;;;;;;29.88;3.60;;;;;;;14.99;58.92;101810.41;4905152;29;20154;-69
2022/09/19 08:58:02;;;;;;;8.85;1.73;;;;;;;14.91;58.36;101814.75;4905830;29;20051;-69
2022/09/19 09:00:50;;;;;;;8.40;1.90;;;;;;;14.99;57.95;101821.50;4933107;29;20071;-67
2022/09/19 09:03:29;;;;;;;12.45;1.75;;;;;;;15.11;56.48;101817.00;4916173;29;20534;-66
2022/09/19 09:06:12;;;;;;;8.40;1.48;;;;;;;14.68;57.99;101825.00;4901796;29;20132;-69
2022/09/19 09:09:11;;;;;;;7.72;1.65;;;;;;;14.66;57.44;101823.69;4934557;29;20043;-67
2022/09/19 09:11:59;;;;;;;8.45;1.67;;;;;;;14.99;56.95;101827.88;4928191;29;20059;-67
2022/09/19 09:15:02;;;;;;;5.85;1.40;;;;;;;15.25;55.53;101819.69;4917722;29;20788;-67
2022/09/19 09:18:28;;;;;;;10.05;1.60;;;;;;;15.34;55.83;101826.13;4918580;29;20048;-68
2022/09/19 09:21:03;;;;;;;8.45;1.30;;;;;;;15.69;53.93;101820.44;4922726;29;20054;-68
2022/09/19 09:23:41;;;;;;;11.18;1.67;;;;;;;15.46;54.69;101821.63;4920308;29;20058;-67
2022/09/19 09:26:30;;;;;;;10.27;2.65;;;;;;;15.71;54.31;101828.44;4921060;29;20631;-67
2022/09/19 09:29:11;;;;;;;5.38;1.20;;;;;;;15.67;49.85;101833.00;4918741;29;20056;-67
2022/09/19 09:31:51;;;;;;;9.02;1.58;;;;;;;15.03;51.97;101834.41;4919321;29;20052;-67
2022/09/19 09:34:59;;;;;;;9.05;1.60;;;;;;;15.38;52.85;101825.16;4907762;29;20055;-67
2022/09/19 09:37:28;;;;;;;7.35;2.13;;;;;;;15.65;52.64;101833.34;4903401;29;20066;-69
2022/09/19 09:40:13;;;;;;;16.07;1.90;;;;;;;15.88;52.83;101830.47;4923152;29;20056;-67
2022/09/19 09:43:02;;;;;;;7.10;1.70;;;;;;;15.91;52.50;101832.59;4917918;29;20059;-68
2022/09/19 09:45:44;;;;;;;11.77;2.33;;;;;;;16.09;51.89;101829.53;4918159;29;20063;-68
2022/09/19 09:48:29;;;;;;;12.27;2.15;;;;;;;16.15;51.44;101831.03;4905456;29;20055;-70
2022/09/19 09:51:22;;;;;;;6.15;1.20;;;;;;;16.06;49.36;101830.19;4921903;29;20048;-69
2022/09/19 09:57:28;;;;;;;8.07;1.30;;;;;;;16.04;49.75;101828.91;4921295;29;20039;-68
2022/09/19 10:03:36;;;;;;;10.52;2.00;;;;;;;16.54;48.31;101822.63;4919622;29;20074;-68
2022/09/19 10:06:42;;;;;;;10.07;1.27;;;;;;;16.43;47.99;101820.44;4924670;29;20133;-68
2022/09/19 10:09:14;;;;;;;10.02;1.25;;;;;;;16.42;46.72;101827.97;4911735;29;20067;-68
2022/09/19 10:12:03;;;;;;;8.88;1.20;;;;;;;16.08;48.36;101810.41;4887397;29;20052;-70
2022/09/19 10:14:58;;;;;;;7.60;1.20;;;;;;;16.35;46.72;101810.16;4939078;29;20047;-70
2022/09/19 10:17:45;;;;;;;4.70;1.00;;;;;;;16.24;46.25;101808.81;4886057;29;20064;-69
2022/09/19 10:20:29;;;;;;;7.18;1.00;;;;;;;16.19;46.24;101807.00;4892079;29;20048;-67
2022/09/19 10:22:59;;;;;;;2.65;0.93;;;;;;;16.25;46.26;101813.25;4898531;29;20043;-69
2022/09/19 10:25:30;;;;;;;5.05;1.02;;;;;;;16.46;46.59;101808.66;4903158;29;20055;-68
2022/09/19 10:28:15;;;;;;;5.60;1.15;;;;;;;16.72;46.57;101806.72;4898939;29;20063;-68
2022/09/19 10:31:00;;;;;;;10.13;1.43;;;;;;;16.67;45.74;101798.56;4918529;29;20826;-68
2022/09/19 10:33:41;;;;;;;5.80;0.93;;;;;;;16.77;45.65;101799.03;4916078;29;20055;-69
2022/09/19 10:36:19;;;;;;;3.50;0.90;;;;;;;16.80;45.49;101801.19;4912412;29;20499;-69
2022/09/19 10:38:54;;;;;;;19.83;3.15;;;;;;;16.91;44.55;101793.31;4916244;29;20419;-70
2022/09/19 10:41:25;;;;;;;5.38;1.45;;;;;;;16.71;45.13;101799.53;4918983;29;20048;-63
2022/09/19 10:44:09;;;;;;;4.75;1.30;;;;;;;16.27;44.96;101805.38;4904241;29;20063;-64
2022/09/19 10:46:46;;;;;;;8.60;1.38;;;;;;;16.19;46.03;101803.41;4915393;29;20055;-63
2022/09/19 10:49:45;;;;;;;8.52;1.65;;;;;;;16.36;46.66;101801.47;4911950;29;20052;-63
2022/09/19 10:52:30;;;;;;;5.53;1.30;;;;;;;16.46;46.88;101803.09;4920627;29;20062;-63
2022/09/19 10:55:22;;;;;;;9.00;1.63;;;;;;;16.88;46.02;101807.88;4920015;29;20059;-64
2022/09/19 10:57:57;;;;;;;9.73;1.70;;;;;;;16.43;45.91;101800.97;4915392;29;20052;-63
2022/09/19 11:00:52;;;;;;;7.55;1.00;;;;;;;16.75;45.86;101798.53;4920422;29;20052;-63
2022/09/19 11:03:23;;;;;;;22.63;3.55;;;;;;;17.12;45.40;101794.22;4906025;29;20509;-63
2022/09/19 11:06:07;;;;;;;9.55;2.05;;;;;;;17.06;45.00;101792.78;4917704;29;20052;-64
2022/09/19 11:08:45;;;;;;;9.43;2.08;;;;;;;17.01;45.56;101801.31;4920871;29;20056;-64
2022/09/19 11:11:20;;;;;;;6.00;1.30;;;;;;;17.17;45.16;101785.72;4920211;29;20058;-63
2022/09/19 11:14:15;;;;;;;7.80;1.40;;;;;;;17.04;44.78;101797.03;4921681;29;20059;-63
2022/09/19 11:17:03;;;;;;;8.20;1.92;;;;;;;17.26;43.54;101796.84;4903929;29;20055;-64
2022/09/19 11:19:58;;;;;;;8.63;2.67;;;;;;;17.07;43.58;101788.84;4918932;29;20118;-63
2022/09/19 11:22:39;;;;;;;11.77;3.78;;;;;;;17.17;43.46;101793.25;4919104;29;20487;-63
2022/09/19 11:25:37;;;;;;;12.10;6.32;;;;;;;17.27;42.73;101790.94;4938284;29;20055;-63
2022/09/19 11:28:40;;;;;;;6.57;1.55;;;;;;;17.15;43.53;101781.63;4903584;29;20062;-64
2022/09/19 11:31:26;;;;;;;6.85;1.42;;;;;;;17.38;42.72;101794.19;4919673;29;20052;-62
2022/09/19 11:34:36;;;;;;;10.38;1.30;;;;;;;17.30;42.31;101790.25;4914992;29;20047;-63
2022/09/19 11:37:32;;;;;;;5.88;1.55;;;;;;;17.26;42.37;101785.69;4878593;29;20060;-64
2022/09/19 11:40:17;;;;;;;10.35;1.40;;;;;;;17.58;42.69;101785.94;4920372;29;20071;-63
2022/09/19 11:42:51;;;;;;;8.57;1.40;;;;;;;17.78;41.34;101789.94;4920231;29;20055;-63
2022/09/19 11:45:19;;;;;;;5.18;1.15;;;;;;;17.81;40.37;101783.69;4908845;29;20060;-62
2022/09/19 11:48:36;;;;;;;7.38;1.40;;;;;;;17.81;40.85;101787.28;4920535;29;20115;-64
2022/09/19 11:51:16;;;;;;;6.10;1.63;;;;;;;17.43;40.89;101786.47;4912750;29;20075;-63
2022/09/19 11:54:22;;;;;;;7.78;2.05;;;;;;;17.33;41.32;101780.44;4892408;29;20060;-62
2022/09/19 11:56:55;;;;;;;8.50;1.77;;;;;;;17.52;41.81;101778.91;4911156;29;20660;-62
2022/09/19 12:00:04;;;;;;;7.95;1.95;;;;;;;17.51;41.42;101782.84;4902365;29;20047;-68
2022/09/19 12:02:58;;;;;;;13.25;1.92;;;;;;;17.58;41.48;101782.31;4891156;29;20052;-69
2022/09/19 12:05:50;;;;;;;14.32;1.45;;;;;;;17.63;41.53;101782.94;4929224;29;20055;-67
2022/09/19 12:08:39;;;;;;;9.90;1.90;;;;;;;17.90;41.09;101765.75;4902022;29;20060;-67
2022/09/19 12:11:12;;;;;;;25.80;3.08;;;;;;;18.06;41.34;101765.16;4927345;29;20047;-68
2022/09/19 12:14:01;;;;;;;8.75;1.63;;;;;;;18.42;40.98;101763.44;4932227;29;20044;-68
2022/09/19 12:16:44;;;;;;;14.40;1.60;;;;;;;17.68;39.80;101765.22;4895365;29;20687;-68
2022/09/19 12:19:21;;;;;;;5.93;1.30;;;;;;;17.76;40.09;101759.63;4916208;29;20063;-69
2022/09/19 12:21:52;;;;;;;11.88;1.70;;;;;;;18.01;39.53;101763.38;4897110;29;20078;-67
2022/09/19 12:27:18;;;;;;;10.13;1.90;;;;;;;18.42;39.85;101748.69;4903227;29;20047;-68
2022/09/19 12:29:57;;;;;;;9.90;1.35;;;;;;;18.10;39.10;101741.84;4914556;29;20051;-68
2022/09/19 12:32:42;;;;;;;5.57;1.40;;;;;;;18.46;39.17;101738.47;4918460;29;20055;-67